sensor_id;sensor_type;location;lat;lon;timestamp;pressure;altitude;pressure_sealevel;temperature;humidity
49044;BME280;34860;48.066;14.124;2022-12-18T00:00:52;97843.78;;;-5.45;78.97
49044;BME280;34860;48.066;14.124;2022-12-18T00:03:41;97849.22;;;-5.45;78.98
49044;BME280;34860;48.066;14.124;2022-12-18T00:06:29;97847.59;;;-5.46;79.02
49044;BME280;34860;48.066;14.124;2022-12-18T00:09:17;97843.00;;;-5.45;79.18
49044;BME280;34860;48.066;14.124;2022-12-18T00:12:06;97857.84;;;-5.43;79.07
49044;BME280;34860;48.066;14.124;2022-12-18T00:14:55;97861.84;;;-5.40;78.94
49044;BME280;34860;48.066;14.124;2022-12-18T00:17:43;97859.34;;;-5.37;78.89
49044;BME280;34860;48.066;14.124;2022-12-18T00:20:35;97855.59;;;-5.27;78.93
49044;BME280;34860;48.066;14.124;2022-12-18T00:23:23;97855.00;;;-5.24;78.75
49044;BME280;34860;48.066;14.124;2022-12-18T00:26:14;97848.66;;;-5.19;78.69
49044;BME280;34860;48.066;14.124;2022-12-18T00:29:05;97854.38;;;-5.07;78.67
49044;BME280;34860;48.066;14.124;2022-12-18T00:31:54;97858.44;;;-4.96;78.67
49044;BME280;34860;48.066;14.124;2022-12-18T00:34:43;97860.91;;;-4.85;78.65
49044;BME280;34860;48.066;14.124;2022-12-18T00:37:33;97866.31;;;-4.71;78.55
49044;BME280;34860;48.066;14.124;2022-12-18T00:40:22;97867.00;;;-4.66;78.48
49044;BME280;34860;48.066;14.124;2022-12-18T00:43:10;97864.66;;;-4.59;78.55
49044;BME280;34860;48.066;14.124;2022-12-18T00:45:57;97866.91;;;-4.52;78.51
49044;BME280;34860;48.066;14.124;2022-12-18T00:48:46;97866.16;;;-4.44;78.75
49044;BME280;34860;48.066;14.124;2022-12-18T00:51:34;97860.66;;;-4.39;78.24
49044;BME280;34860;48.066;14.124;2022-12-18T00:54:22;97881.22;;;-4.38;78.39
49044;BME280;34860;48.066;14.124;2022-12-18T00:57:11;97881.59;;;-4.30;78.23
49044;BME280;34860;48.066;14.124;2022-12-18T00:59:59;97879.06;;;-4.27;78.35
49044;BME280;34860;48.066;14.124;2022-12-18T01:02:48;97871.41;;;-4.25;78.48
49044;BME280;34860;48.066;14.124;2022-12-18T01:05:40;97884.53;;;-4.18;78.38
49044;BME280;34860;48.066;14.124;2022-12-18T01:08:28;97883.28;;;-4.12;78.32
49044;BME280;34860;48.066;14.124;2022-12-18T01:11:19;97888.00;;;-4.04;78.22
49044;BME280;34860;48.066;14.124;2022-12-18T01:14:09;97895.50;;;-4.01;78.33
49044;BME280;34860;48.066;14.124;2022-12-18T01:16:57;97890.28;;;-3.97;78.38
49044;BME280;34860;48.066;14.124;2022-12-18T01:19:46;97893.94;;;-3.93;78.43
49044;BME280;34860;48.066;14.124;2022-12-18T01:22:35;97904.31;;;-3.95;78.36
49044;BME280;34860;48.066;14.124;2022-12-18T01:25:26;97908.13;;;-3.96;78.53
49044;BME280;34860;48.066;14.124;2022-12-18T01:28:14;97914.34;;;-4.04;78.41
49044;BME280;34860;48.066;14.124;2022-12-18T01:31:11;97913.16;;;-4.12;78.44
49044;BME280;34860;48.066;14.124;2022-12-18T01:34:00;97911.19;;;-4.20;78.54
49044;BME280;34860;48.066;14.124;2022-12-18T01:36:49;97912.97;;;-4.15;78.61
49044;BME280;34860;48.066;14.124;2022-12-18T01:39:40;97903.91;;;-4.11;78.57
49044;BME280;34860;48.066;14.124;2022-12-18T01:42:28;97907.41;;;-4.10;78.60
49044;BME280;34860;48.066;14.124;2022-12-18T01:45:25;97910.44;;;-4.12;78.70
49044;BME280;34860;48.066;14.124;2022-12-18T01:48:13;97918.28;;;-4.10;78.79
49044;BME280;34860;48.066;14.124;2022-12-18T01:51:02;97905.69;;;-4.06;78.76
49044;BME280;34860;48.066;14.124;2022-12-18T01:53:50;97919.75;;;-4.04;78.52
49044;BME280;34860;48.066;14.124;2022-12-18T01:56:39;97919.91;;;-4.09;78.72
49044;BME280;34860;48.066;14.124;2022-12-18T01:59:29;97912.84;;;-4.10;78.76
49044;BME280;34860;48.066;14.124;2022-12-18T02:02:20;97910.41;;;-4.21;78.77
49044;BME280;34860;48.066;14.124;2022-12-18T02:05:09;97898.06;;;-4.27;79.32
49044;BME280;34860;48.066;14.124;2022-12-18T02:08:03;97900.47;;;-4.25;79.17
49044;BME280;34860;48.066;14.124;2022-12-18T02:11:02;97906.69;;;-4.25;79.27
49044;BME280;34860;48.066;14.124;2022-12-18T02:14:02;97904.91;;;-4.29;79.20
49044;BME280;34860;48.066;14.124;2022-12-18T02:16:53;97903.00;;;-4.29;79.08
49044;BME280;34860;48.066;14.124;2022-12-18T02:19:58;97905.41;;;-4.27;79.02
49044;BME280;34860;48.066;14.124;2022-12-18T02:23:00;97911.16;;;-4.29;78.96
49044;BME280;34860;48.066;14.124;2022-12-18T02:26:07;97922.66;;;-4.46;79.13
49044;BME280;34860;48.066;14.124;2022-12-18T02:29:05;97919.91;;;-4.54;79.37
49044;BME280;34860;48.066;14.124;2022-12-18T02:31:58;97915.88;;;-4.57;79.40
49044;BME280;34860;48.066;14.124;2022-12-18T02:34:48;97919.31;;;-4.65;79.46
49044;BME280;34860;48.066;14.124;2022-12-18T02:37:42;97915.72;;;-4.75;79.50
49044;BME280;34860;48.066;14.124;2022-12-18T02:40:31;97909.31;;;-4.79;79.64
49044;BME280;34860;48.066;14.124;2022-12-18T02:43:21;97906.22;;;-4.86;79.71
49044;BME280;34860;48.066;14.124;2022-12-18T02:46:25;97907.13;;;-4.90;79.70
49044;BME280;34860;48.066;14.124;2022-12-18T02:49:25;97912.78;;;-5.01;79.70
49044;BME280;34860;48.066;14.124;2022-12-18T02:52:26;97923.22;;;-5.08;79.81
49044;BME280;34860;48.066;14.124;2022-12-18T02:55:26;97917.91;;;-5.13;79.83
49044;BME280;34860;48.066;14.124;2022-12-18T02:58:29;97920.63;;;-5.13;79.71
49044;BME280;34860;48.066;14.124;2022-12-18T03:01:28;97928.56;;;-5.17;79.58
49044;BME280;34860;48.066;14.124;2022-12-18T03:04:26;97936.78;;;-5.22;79.67
49044;BME280;34860;48.066;14.124;2022-12-18T03:07:19;97929.06;;;-5.29;79.71
49044;BME280;34860;48.066;14.124;2022-12-18T03:10:14;97929.78;;;-5.37;80.01
49044;BME280;34860;48.066;14.124;2022-12-18T03:13:06;97928.69;;;-5.36;79.85
49044;BME280;34860;48.066;14.124;2022-12-18T03:15:59;97922.25;;;-5.40;79.92
49044;BME280;34860;48.066;14.124;2022-12-18T03:18:51;97917.22;;;-5.47;79.72
49044;BME280;34860;48.066;14.124;2022-12-18T03:21:42;97918.63;;;-5.49;79.85
49044;BME280;34860;48.066;14.124;2022-12-18T03:24:35;97917.84;;;-5.50;79.78
49044;BME280;34860;48.066;14.124;2022-12-18T03:27:29;97919.63;;;-5.59;79.76
49044;BME280;34860;48.066;14.124;2022-12-18T03:30:24;97916.53;;;-5.66;79.79
49044;BME280;34860;48.066;14.124;2022-12-18T03:33:17;97911.81;;;-5.74;79.91
49044;BME280;34860;48.066;14.124;2022-12-18T03:36:08;97907.28;;;-5.79;79.95
49044;BME280;34860;48.066;14.124;2022-12-18T03:38:57;97917.59;;;-5.81;79.88
49044;BME280;34860;48.066;14.124;2022-12-18T03:41:51;97915.28;;;-5.88;79.75
49044;BME280;34860;48.066;14.124;2022-12-18T03:44:57;97925.22;;;-5.97;79.96
49044;BME280;34860;48.066;14.124;2022-12-18T03:47:54;97927.94;;;-5.97;79.96
49044;BME280;34860;48.066;14.124;2022-12-18T03:50:49;97931.03;;;-5.90;79.65
49044;BME280;34860;48.066;14.124;2022-12-18T03:53:46;97935.25;;;-5.84;79.73
49044;BME280;34860;48.066;14.124;2022-12-18T03:56:42;97934.66;;;-5.80;79.42
49044;BME280;34860;48.066;14.124;2022-12-18T03:59:33;97939.97;;;-5.75;79.34
49044;BME280;34860;48.066;14.124;2022-12-18T04:02:24;97936.69;;;-5.72;79.04
49044;BME280;34860;48.066;14.124;2022-12-18T04:05:14;97932.78;;;-5.66;79.25
49044;BME280;34860;48.066;14.124;2022-12-18T04:08:05;97939.72;;;-5.60;79.14
49044;BME280;34860;48.066;14.124;2022-12-18T04:10:57;97933.16;;;-5.59;79.17
49044;BME280;34860;48.066;14.124;2022-12-18T04:13:45;97935.97;;;-5.64;79.01
49044;BME280;34860;48.066;14.124;2022-12-18T04:16:41;97950.63;;;-5.65;79.27
49044;BME280;34860;48.066;14.124;2022-12-18T04:19:32;97952.44;;;-5.60;79.30
49044;BME280;34860;48.066;14.124;2022-12-18T04:22:22;97959.75;;;-5.61;79.28
49044;BME280;34860;48.066;14.124;2022-12-18T04:25:17;97963.16;;;-5.55;79.23
49044;BME280;34860;48.066;14.124;2022-12-18T04:28:17;97964.66;;;-5.49;78.97
49044;BME280;34860;48.066;14.124;2022-12-18T04:31:05;97969.50;;;-5.46;78.97
49044;BME280;34860;48.066;14.124;2022-12-18T04:33:53;97963.78;;;-5.44;78.84
49044;BME280;34860;48.066;14.124;2022-12-18T04:36:42;97964.06;;;-5.46;78.91
49044;BME280;34860;48.066;14.124;2022-12-18T04:39:30;97961.28;;;-5.55;79.08
49044;BME280;34860;48.066;14.124;2022-12-18T04:42:25;97950.00;;;-5.62;79.40
49044;BME280;34860;48.066;14.124;2022-12-18T04:45:13;97960.06;;;-5.62;79.27
49044;BME280;34860;48.066;14.124;2022-12-18T04:48:02;97959.84;;;-5.66;79.50
49044;BME280;34860;48.066;14.124;2022-12-18T04:50:51;97956.03;;;-5.65;79.41
49044;BME280;34860;48.066;14.124;2022-12-18T04:53:40;97957.44;;;-5.68;79.57
49044;BME280;34860;48.066;14.124;2022-12-18T04:56:30;97964.06;;;-5.74;79.37
49044;BME280;34860;48.066;14.124;2022-12-18T04:59:19;97957.84;;;-5.74;79.56
49044;BME280;34860;48.066;14.124;2022-12-18T05:02:07;97959.13;;;-5.72;79.50
49044;BME280;34860;48.066;14.124;2022-12-18T05:04:55;97953.72;;;-5.72;79.41
49044;BME280;34860;48.066;14.124;2022-12-18T05:07:44;97947.00;;;-5.74;79.39
49044;BME280;34860;48.066;14.124;2022-12-18T05:10:32;97962.44;;;-5.75;79.58
49044;BME280;34860;48.066;14.124;2022-12-18T05:13:24;97955.72;;;-5.77;79.42
49044;BME280;34860;48.066;14.124;2022-12-18T05:16:14;97954.59;;;-5.76;79.45
49044;BME280;34860;48.066;14.124;2022-12-18T05:19:02;97947.59;;;-5.77;79.43
49044;BME280;34860;48.066;14.124;2022-12-18T05:21:50;97959.53;;;-5.78;79.21
49044;BME280;34860;48.066;14.124;2022-12-18T05:24:38;97962.53;;;-5.80;79.32
49044;BME280;34860;48.066;14.124;2022-12-18T05:27:26;97954.72;;;-5.81;79.43
49044;BME280;34860;48.066;14.124;2022-12-18T05:30:15;97968.25;;;-5.81;79.31
49044;BME280;34860;48.066;14.124;2022-12-18T05:33:05;97971.53;;;-5.85;79.20
49044;BME280;34860;48.066;14.124;2022-12-18T05:35:54;97965.03;;;-5.84;79.31
49044;BME280;34860;48.066;14.124;2022-12-18T05:38:42;97969.34;;;-5.82;79.22
49044;BME280;34860;48.066;14.124;2022-12-18T05:41:30;97979.56;;;-5.79;79.18
49044;BME280;34860;48.066;14.124;2022-12-18T05:44:18;97977.38;;;-5.77;79.14
49044;BME280;34860;48.066;14.124;2022-12-18T05:47:06;97974.09;;;-5.74;79.08
49044;BME280;34860;48.066;14.124;2022-12-18T05:49:56;97979.50;;;-5.74;79.07
49044;BME280;34860;48.066;14.124;2022-12-18T05:52:44;97993.03;;;-5.74;79.00
49044;BME280;34860;48.066;14.124;2022-12-18T05:55:33;97988.41;;;-5.74;78.99
49044;BME280;34860;48.066;14.124;2022-12-18T05:58:21;97989.50;;;-5.75;79.06
49044;BME280;34860;48.066;14.124;2022-12-18T06:01:12;97996.03;;;-5.76;78.87
49044;BME280;34860;48.066;14.124;2022-12-18T06:04:00;98005.34;;;-5.82;79.01
49044;BME280;34860;48.066;14.124;2022-12-18T06:06:50;98016.56;;;-5.89;79.22
49044;BME280;34860;48.066;14.124;2022-12-18T06:09:38;98011.44;;;-5.90;79.26
49044;BME280;34860;48.066;14.124;2022-12-18T06:12:26;98012.03;;;-5.93;79.51
49044;BME280;34860;48.066;14.124;2022-12-18T06:15:14;98022.94;;;-5.98;79.25
49044;BME280;34860;48.066;14.124;2022-12-18T06:18:03;98021.75;;;-6.06;79.40
49044;BME280;34860;48.066;14.124;2022-12-18T06:20:54;98014.72;;;-6.07;79.25
49044;BME280;34860;48.066;14.124;2022-12-18T06:23:44;98020.91;;;-6.07;79.33
49044;BME280;34860;48.066;14.124;2022-12-18T06:26:33;98019.38;;;-6.13;79.49
49044;BME280;34860;48.066;14.124;2022-12-18T06:29:21;98034.03;;;-6.14;79.30
49044;BME280;34860;48.066;14.124;2022-12-18T06:32:09;98045.72;;;-6.18;79.41
49044;BME280;34860;48.066;14.124;2022-12-18T06:34:57;98039.81;;;-6.21;79.46
49044;BME280;34860;48.066;14.124;2022-12-18T06:37:45;98036.28;;;-6.21;79.52
49044;BME280;34860;48.066;14.124;2022-12-18T06:40:36;98037.69;;;-6.24;79.45
49044;BME280;34860;48.066;14.124;2022-12-18T06:43:24;98040.69;;;-6.25;79.54
49044;BME280;34860;48.066;14.124;2022-12-18T06:46:12;98031.47;;;-6.24;79.47
49044;BME280;34860;48.066;14.124;2022-12-18T06:49:00;98024.22;;;-6.29;79.33
49044;BME280;34860;48.066;14.124;2022-12-18T06:51:49;98023.81;;;-6.36;79.43
49044;BME280;34860;48.066;14.124;2022-12-18T06:54:37;98021.09;;;-6.36;79.47
49044;BME280;34860;48.066;14.124;2022-12-18T06:57:26;98034.84;;;-6.32;79.43
49044;BME280;34860;48.066;14.124;2022-12-18T07:00:15;98050.28;;;-6.33;79.49
49044;BME280;34860;48.066;14.124;2022-12-18T07:03:03;98051.13;;;-6.37;79.30
49044;BME280;34860;48.066;14.124;2022-12-18T07:05:51;98057.72;;;-6.44;79.47
49044;BME280;34860;48.066;14.124;2022-12-18T07:08:39;98065.59;;;-6.47;79.26
49044;BME280;34860;48.066;14.124;2022-12-18T07:11:27;98058.28;;;-6.47;79.69
49044;BME280;34860;48.066;14.124;2022-12-18T07:14:17;98060.41;;;-6.44;79.53
49044;BME280;34860;48.066;14.124;2022-12-18T07:17:05;98078.59;;;-6.49;79.52
49044;BME280;34860;48.066;14.124;2022-12-18T07:19:54;98078.66;;;-6.54;79.57
49044;BME280;34860;48.066;14.124;2022-12-18T07:22:42;98075.75;;;-6.58;79.59
49044;BME280;34860;48.066;14.124;2022-12-18T07:25:29;98069.84;;;-6.60;79.64
49044;BME280;34860;48.066;14.124;2022-12-18T07:28:17;98061.19;;;-6.62;79.58
49044;BME280;34860;48.066;14.124;2022-12-18T07:31:09;98069.88;;;-6.65;79.53
49044;BME280;34860;48.066;14.124;2022-12-18T07:33:58;98070.19;;;-6.67;79.66
49044;BME280;34860;48.066;14.124;2022-12-18T07:36:46;98077.47;;;-6.67;79.60
49044;BME280;34860;48.066;14.124;2022-12-18T07:39:34;98071.84;;;-6.71;79.72
49044;BME280;34860;48.066;14.124;2022-12-18T07:42:22;98078.88;;;-6.70;79.73
49044;BME280;34860;48.066;14.124;2022-12-18T07:45:19;98074.25;;;-6.69;79.59
49044;BME280;34860;48.066;14.124;2022-12-18T07:48:08;98089.69;;;-6.70;79.63
49044;BME280;34860;48.066;14.124;2022-12-18T07:50:58;98096.19;;;-6.71;79.74
49044;BME280;34860;48.066;14.124;2022-12-18T07:53:46;98086.75;;;-6.73;79.81
49044;BME280;34860;48.066;14.124;2022-12-18T07:56:34;98087.56;;;-6.73;79.78
49044;BME280;34860;48.066;14.124;2022-12-18T07:59:22;98101.31;;;-6.69;79.67
49044;BME280;34860;48.066;14.124;2022-12-18T08:02:10;98091.28;;;-6.69;79.86
49044;BME280;34860;48.066;14.124;2022-12-18T08:04:59;98094.81;;;-6.68;79.66
49044;BME280;34860;48.066;14.124;2022-12-18T08:07:47;98092.41;;;-6.70;79.82
49044;BME280;34860;48.066;14.124;2022-12-18T08:10:38;98093.75;;;-6.72;79.77
49044;BME280;34860;48.066;14.124;2022-12-18T08:13:26;98101.06;;;-6.73;79.90
49044;BME280;34860;48.066;14.124;2022-12-18T08:16:15;98090.25;;;-6.73;79.88
49044;BME280;34860;48.066;14.124;2022-12-18T08:19:03;98096.69;;;-6.69;79.93
49044;BME280;34860;48.066;14.124;2022-12-18T08:21:57;98099.63;;;-6.65;79.97
49044;BME280;34860;48.066;14.124;2022-12-18T08:24:45;98104.97;;;-6.60;79.85
49044;BME280;34860;48.066;14.124;2022-12-18T08:27:33;98098.13;;;-6.52;79.72
49044;BME280;34860;48.066;14.124;2022-12-18T08:30:21;98107.91;;;-6.57;79.63
49044;BME280;34860;48.066;14.124;2022-12-18T08:33:10;98104.44;;;-6.62;79.83
49044;BME280;34860;48.066;14.124;2022-12-18T08:35:58;98102.28;;;-6.60;79.91
49044;BME280;34860;48.066;14.124;2022-12-18T08:38:48;98110.31;;;-6.55;79.74
49044;BME280;34860;48.066;14.124;2022-12-18T08:41:36;98108.69;;;-6.56;79.89
49044;BME280;34860;48.066;14.124;2022-12-18T08:44:24;98111.38;;;-6.51;79.81
49044;BME280;34860;48.066;14.124;2022-12-18T08:47:26;98099.44;;;-6.50;79.81
49044;BME280;34860;48.066;14.124;2022-12-18T08:50:14;98093.97;;;-6.45;79.88
49044;BME280;34860;48.066;14.124;2022-12-18T08:53:03;98087.47;;;-6.44;79.76
49044;BME280;34860;48.066;14.124;2022-12-18T08:55:52;98101.78;;;-6.43;79.54
49044;BME280;34860;48.066;14.124;2022-12-18T08:58:40;98095.44;;;-6.52;79.74
49044;BME280;34860;48.066;14.124;2022-12-18T09:01:28;98100.59;;;-6.56;79.76
49044;BME280;34860;48.066;14.124;2022-12-18T09:04:17;98107.91;;;-6.57;79.75
49044;BME280;34860;48.066;14.124;2022-12-18T09:07:05;98096.28;;;-6.57;79.77
49044;BME280;34860;48.066;14.124;2022-12-18T09:09:52;98097.38;;;-6.58;79.77
49044;BME280;34860;48.066;14.124;2022-12-18T09:12:42;98092.47;;;-6.56;79.87
49044;BME280;34860;48.066;14.124;2022-12-18T09:15:30;98098.72;;;-6.55;79.78
49044;BME280;34860;48.066;14.124;2022-12-18T09:18:20;98100.84;;;-6.52;79.59
49044;BME280;34860;48.066;14.124;2022-12-18T09:21:09;98092.47;;;-6.56;79.63
49044;BME280;34860;48.066;14.124;2022-12-18T09:23:58;98091.69;;;-6.57;79.66
49044;BME280;34860;48.066;14.124;2022-12-18T09:26:46;98097.38;;;-6.58;79.67
49044;BME280;34860;48.066;14.124;2022-12-18T09:29:35;98089.06;;;-6.62;79.64
49044;BME280;34860;48.066;14.124;2022-12-18T09:32:23;98096.91;;;-6.65;79.65
49044;BME280;34860;48.066;14.124;2022-12-18T09:35:11;98105.84;;;-6.65;79.57
49044;BME280;34860;48.066;14.124;2022-12-18T09:37:59;98100.94;;;-6.63;79.69
49044;BME280;34860;48.066;14.124;2022-12-18T09:40:49;98103.88;;;-6.59;79.73
49044;BME280;34860;48.066;14.124;2022-12-18T09:43:41;98100.22;;;-6.49;79.83
49044;BME280;34860;48.066;14.124;2022-12-18T09:46:34;98103.75;;;-6.49;79.65
49044;BME280;34860;48.066;14.124;2022-12-18T09:49:28;98101.56;;;-6.47;79.73
49044;BME280;34860;48.066;14.124;2022-12-18T09:52:19;98093.91;;;-6.40;79.74
49044;BME280;34860;48.066;14.124;2022-12-18T09:55:22;98095.97;;;-6.31;79.80
49044;BME280;34860;48.066;14.124;2022-12-18T09:58:16;98096.09;;;-6.23;79.83
49044;BME280;34860;48.066;14.124;2022-12-18T10:01:09;98100.34;;;-6.16;79.94
49044;BME280;34860;48.066;14.124;2022-12-18T10:03:59;98093.47;;;-6.09;79.90
49044;BME280;34860;48.066;14.124;2022-12-18T10:06:52;98097.94;;;-5.99;79.80
49044;BME280;34860;48.066;14.124;2022-12-18T10:09:49;98093.94;;;-5.88;79.74
49044;BME280;34860;48.066;14.124;2022-12-18T10:12:46;98098.78;;;-5.85;79.68
49044;BME280;34860;48.066;14.124;2022-12-18T10:15:50;98096.00;;;-5.79;79.69
49044;BME280;34860;48.066;14.124;2022-12-18T10:18:56;98098.63;;;-5.74;79.67
49044;BME280;34860;48.066;14.124;2022-12-18T10:21:53;98090.94;;;-5.67;79.86
49044;BME280;34860;48.066;14.124;2022-12-18T10:24:48;98092.97;;;-5.59;79.79
49044;BME280;34860;48.066;14.124;2022-12-18T10:27:41;98087.75;;;-5.55;79.77
49044;BME280;34860;48.066;14.124;2022-12-18T10:30:29;98083.84;;;-5.49;79.85
49044;BME280;34860;48.066;14.124;2022-12-18T10:33:19;98076.97;;;-5.41;79.86
49044;BME280;34860;48.066;14.124;2022-12-18T10:36:08;98075.19;;;-5.32;79.82
49044;BME280;34860;48.066;14.124;2022-12-18T10:39:14;98064.44;;;-5.23;79.79
49044;BME280;34860;48.066;14.124;2022-12-18T10:42:10;98061.44;;;-5.22;79.64
49044;BME280;34860;48.066;14.124;2022-12-18T10:45:02;98051.91;;;-5.19;79.57
49044;BME280;34860;48.066;14.124;2022-12-18T10:47:51;98049.69;;;-5.17;79.83
49044;BME280;34860;48.066;14.124;2022-12-18T10:50:40;98040.56;;;-5.07;79.86
49044;BME280;34860;48.066;14.124;2022-12-18T10:53:56;98033.16;;;-5.02;79.66
49044;BME280;34860;48.066;14.124;2022-12-18T10:56:47;98015.56;;;-5.04;79.65
49044;BME280;34860;48.066;14.124;2022-12-18T10:59:50;98018.38;;;-5.09;79.81
49044;BME280;34860;48.066;14.124;2022-12-18T11:02:38;98020.00;;;-5.08;79.98
49044;BME280;34860;48.066;14.124;2022-12-18T11:05:28;98015.88;;;-5.06;79.95
49044;BME280;34860;48.066;14.124;2022-12-18T11:08:20;98024.72;;;-5.00;80.02
49044;BME280;34860;48.066;14.124;2022-12-18T11:11:17;98028.34;;;-4.91;79.98
49044;BME280;34860;48.066;14.124;2022-12-18T11:14:15;98026.25;;;-4.80;79.95
49044;BME280;34860;48.066;14.124;2022-12-18T11:17:18;98032.75;;;-4.67;79.74
49044;BME280;34860;48.066;14.124;2022-12-18T11:20:21;98031.63;;;-4.66;79.79
49044;BME280;34860;48.066;14.124;2022-12-18T11:23:12;98025.59;;;-4.63;79.76
49044;BME280;34860;48.066;14.124;2022-12-18T11:26:02;98026.50;;;-4.54;79.75
49044;BME280;34860;48.066;14.124;2022-12-18T11:29:09;98028.78;;;-4.47;79.47
49044;BME280;34860;48.066;14.124;2022-12-18T11:32:21;98031.00;;;-4.35;79.75
49044;BME280;34860;48.066;14.124;2022-12-18T11:35:16;98026.13;;;-4.25;79.58
49044;BME280;34860;48.066;14.124;2022-12-18T11:38:12;98020.59;;;-4.20;79.46
49044;BME280;34860;48.066;14.124;2022-12-18T11:41:07;98023.91;;;-4.23;79.60
49044;BME280;34860;48.066;14.124;2022-12-18T11:44:09;98022.97;;;-4.18;79.66
49044;BME280;34860;48.066;14.124;2022-12-18T11:47:03;98028.19;;;-4.08;79.80
49044;BME280;34860;48.066;14.124;2022-12-18T11:49:55;98009.19;;;-4.08;79.70
49044;BME280;34860;48.066;14.124;2022-12-18T11:52:44;98006.78;;;-4.09;79.88
49044;BME280;34860;48.066;14.124;2022-12-18T11:55:41;98010.59;;;-4.10;79.88
49044;BME280;34860;48.066;14.124;2022-12-18T11:58:45;98013.69;;;-4.03;80.03
49044;BME280;34860;48.066;14.124;2022-12-18T12:01:43;98012.63;;;-3.93;79.86
49044;BME280;34860;48.066;14.124;2022-12-18T12:04:48;98001.66;;;-3.88;79.76
49044;BME280;34860;48.066;14.124;2022-12-18T12:07:42;98000.41;;;-3.82;79.83
49044;BME280;34860;48.066;14.124;2022-12-18T12:10:45;97988.78;;;-3.74;79.63
49044;BME280;34860;48.066;14.124;2022-12-18T12:13:42;97986.63;;;-3.63;79.55
49044;BME280;34860;48.066;14.124;2022-12-18T12:16:35;97981.53;;;-3.56;79.50
49044;BME280;34860;48.066;14.124;2022-12-18T12:19:36;97988.44;;;-3.50;79.56
49044;BME280;34860;48.066;14.124;2022-12-18T12:22:33;97984.78;;;-3.45;79.51
49044;BME280;34860;48.066;14.124;2022-12-18T12:25:31;97978.59;;;-3.37;79.70
49044;BME280;34860;48.066;14.124;2022-12-18T12:28:28;97980.25;;;-3.27;79.52
49044;BME280;34860;48.066;14.124;2022-12-18T12:31:31;97982.06;;;-3.14;79.59
49044;BME280;34860;48.066;14.124;2022-12-18T12:34:23;97989.59;;;-3.02;79.39
49044;BME280;34860;48.066;14.124;2022-12-18T12:37:24;97991.91;;;-2.95;79.32
49044;BME280;34860;48.066;14.124;2022-12-18T12:40:17;97993.66;;;-2.90;79.35
49044;BME280;34860;48.066;14.124;2022-12-18T12:43:32;98001.19;;;-2.87;79.50
49044;BME280;34860;48.066;14.124;2022-12-18T12:46:23;97994.63;;;-2.78;79.56
49044;BME280;34860;48.066;14.124;2022-12-18T12:49:15;97998.19;;;-2.77;79.40
49044;BME280;34860;48.066;14.124;2022-12-18T12:52:12;98002.78;;;-2.78;79.75
49044;BME280;34860;48.066;14.124;2022-12-18T12:55:07;97997.03;;;-2.85;79.55
49044;BME280;34860;48.066;14.124;2022-12-18T12:58:06;97998.78;;;-2.89;79.65
49044;BME280;34860;48.066;14.124;2022-12-18T13:01:04;98006.63;;;-2.87;79.97
49044;BME280;34860;48.066;14.124;2022-12-18T13:04:03;98015.91;;;-2.80;79.84
49044;BME280;34860;48.066;14.124;2022-12-18T13:07:00;98018.19;;;-2.73;79.81
49044;BME280;34860;48.066;14.124;2022-12-18T13:10:26;98019.13;;;-2.78;79.75
49044;BME280;34860;48.066;14.124;2022-12-18T13:13:15;98029.19;;;-2.87;79.71
49044;BME280;34860;48.066;14.124;2022-12-18T13:16:05;98030.44;;;-2.93;79.91
49044;BME280;34860;48.066;14.124;2022-12-18T13:18:55;98034.44;;;-2.90;79.91
49044;BME280;34860;48.066;14.124;2022-12-18T13:21:53;98038.75;;;-2.98;79.81
49044;BME280;34860;48.066;14.124;2022-12-18T13:24:42;98045.25;;;-3.08;79.96
49044;BME280;34860;48.066;14.124;2022-12-18T13:27:57;98042.34;;;-3.20;80.03
49044;BME280;34860;48.066;14.124;2022-12-18T13:30:52;98048.53;;;-3.29;80.23
49044;BME280;34860;48.066;14.124;2022-12-18T13:33:43;98043.03;;;-3.37;80.34
49044;BME280;34860;48.066;14.124;2022-12-18T13:36:54;98047.81;;;-3.43;80.09
49044;BME280;34860;48.066;14.124;2022-12-18T13:39:43;98034.66;;;-3.50;80.19
49044;BME280;34860;48.066;14.124;2022-12-18T13:42:37;98036.31;;;-3.62;80.24
49044;BME280;34860;48.066;14.124;2022-12-18T13:45:47;98037.50;;;-3.77;80.21
49044;BME280;34860;48.066;14.124;2022-12-18T13:48:37;98028.19;;;-3.85;80.35
49044;BME280;34860;48.066;14.124;2022-12-18T13:51:27;98029.63;;;-3.88;80.31
49044;BME280;34860;48.066;14.124;2022-12-18T13:54:19;98034.06;;;-3.92;80.27
49044;BME280;34860;48.066;14.124;2022-12-18T13:57:26;98030.03;;;-3.94;80.05
49044;BME280;34860;48.066;14.124;2022-12-18T14:00:24;98027.00;;;-3.93;80.10
49044;BME280;34860;48.066;14.124;2022-12-18T14:03:20;98027.31;;;-3.94;80.04
49044;BME280;34860;48.066;14.124;2022-12-18T14:06:11;98024.25;;;-4.02;79.98
49044;BME280;34860;48.066;14.124;2022-12-18T14:09:02;98025.78;;;-4.09;80.08
49044;BME280;34860;48.066;14.124;2022-12-18T14:11:50;98023.66;;;-4.12;80.04
49044;BME280;34860;48.066;14.124;2022-12-18T14:14:41;98028.31;;;-4.13;80.11
49044;BME280;34860;48.066;14.124;2022-12-18T14:17:31;98039.34;;;-4.09;79.97
49044;BME280;34860;48.066;14.124;2022-12-18T14:20:24;98042.53;;;-4.07;80.00
49044;BME280;34860;48.066;14.124;2022-12-18T14:23:26;98029.50;;;-4.05;79.69
49044;BME280;34860;48.066;14.124;2022-12-18T14:26:21;98036.03;;;-4.06;79.56
49044;BME280;34860;48.066;14.124;2022-12-18T14:29:21;98037.56;;;-4.14;79.72
49044;BME280;34860;48.066;14.124;2022-12-18T14:32:11;98032.38;;;-4.24;79.73
49044;BME280;34860;48.066;14.124;2022-12-18T14:35:13;98028.66;;;-4.28;79.76
49044;BME280;34860;48.066;14.124;2022-12-18T14:38:20;98028.66;;;-4.28;79.82
49044;BME280;34860;48.066;14.124;2022-12-18T14:41:11;98039.50;;;-4.28;79.71
49044;BME280;34860;48.066;14.124;2022-12-18T14:44:07;98039.13;;;-4.35;79.75
49044;BME280;34860;48.066;14.124;2022-12-18T14:46:58;98045.03;;;-4.33;79.77
49044;BME280;34860;48.066;14.124;2022-12-18T14:49:48;98046.84;;;-4.29;79.66
49044;BME280;34860;48.066;14.124;2022-12-18T14:52:37;98039.81;;;-4.30;79.60
49044;BME280;34860;48.066;14.124;2022-12-18T14:55:26;98039.31;;;-4.32;79.60
49044;BME280;34860;48.066;14.124;2022-12-18T14:58:15;98037.22;;;-4.35;79.59
49044;BME280;34860;48.066;14.124;2022-12-18T15:01:05;98045.97;;;-4.38;79.60